createdAt,value
2023-06-19T06:55:42.284Z,100762.92
2023-06-19T06:56:44.246Z,100761.08
2023-06-19T06:57:46.169Z,100759.17
2023-06-19T06:58:48.171Z,100756.36
2023-06-19T06:59:50.080Z,100756.36
2023-06-19T07:00:51.974Z,100756.28
2023-06-19T07:01:54.108Z,100757.94
2023-06-19T07:02:56.181Z,100764.91
2023-06-19T07:03:58.194Z,100764.86
2023-06-19T07:05:00.097Z,100755.95
2023-06-19T07:06:02.098Z,100760.31
2023-06-19T07:07:04.074Z,100753.19
2023-06-19T07:08:06.106Z,100752.25
2023-06-19T07:09:08.066Z,100752.14
2023-06-19T07:10:10.583Z,100755.67
2023-06-19T07:11:12.477Z,100762.63
2023-06-19T07:12:14.427Z,100757.33
2023-06-19T07:13:16.279Z,100763.56
2023-06-19T07:14:18.129Z,100759.17
2023-06-19T07:15:23.155Z,100761.77
2023-06-19T07:16:25.960Z,100766.09
2023-06-19T07:17:27.932Z,100759.92
2023-06-19T07:18:29.843Z,100758.09
2023-06-19T07:19:31.783Z,100758.09
2023-06-19T07:20:33.733Z,100754.59
2023-06-19T07:21:35.586Z,100762.43
2023-06-19T07:22:37.562Z,100756.24
2023-06-19T07:23:39.594Z,100762.37
2023-06-19T07:24:41.477Z,100749.92
2023-06-19T07:25:43.604Z,100749.92
2023-06-19T07:26:45.601Z,100756.91
2023-06-19T07:27:47.623Z,100749.02
2023-06-19T07:28:49.456Z,100758.66
2023-06-19T07:29:51.412Z,100755.95
2023-06-19T07:30:53.376Z,100755.05
2023-06-19T07:31:55.318Z,100760.34
2023-06-19T07:32:57.321Z,100750.60
2023-06-19T07:33:59.324Z,100753.25
2023-06-19T07:35:01.296Z,100758.49
2023-06-19T07:36:03.234Z,100757.64
2023-06-19T07:37:05.191Z,100757.58
2023-06-19T07:38:07.238Z,100755.73
2023-06-19T07:39:09.215Z,100747.78
2023-06-19T07:40:11.959Z,100747.78
2023-06-19T07:41:13.918Z,100758.15
2023-06-19T07:42:15.866Z,100757.12
2023-06-19T07:43:17.816Z,100758.80
2023-06-19T07:44:19.674Z,100753.44
2023-06-19T07:45:21.515Z,100750.77
2023-06-19T07:46:24.338Z,100756.01
2023-06-19T07:47:26.281Z,100753.23
2023-06-19T07:48:28.298Z,100760.16
2023-06-19T07:49:30.150Z,100755.66
2023-06-19T07:50:32.418Z,100758.24
2023-06-19T07:51:34.774Z,100747.58
2023-06-19T07:52:36.723Z,100742.22
2023-06-19T07:53:38.579Z,100746.55
2023-06-19T07:54:40.537Z,100748.23
2023-06-19T07:55:42.384Z,100749.02
2023-06-19T07:56:44.436Z,100748.05
2023-06-19T07:57:46.383Z,100745.27
2023-06-19T07:58:48.243Z,100742.56
2023-06-19T07:59:50.192Z,100750.45
2023-06-19T08:00:52.138Z,100744.14
2023-06-19T08:01:54.086Z,100739.66
2023-06-19T08:02:55.998Z,100742.13
2023-06-19T08:03:58.069Z,100742.13
2023-06-19T08:05:00.100Z,100748.16
2023-06-19T08:06:02.130Z,100748.16
2023-06-19T08:07:04.063Z,100745.45
2023-06-19T08:08:05.911Z,100745.45
2023-06-19T08:09:07.769Z,100746.27
2023-06-19T08:10:13.845Z,100750.63
2023-06-19T08:11:13.733Z,100752.37
2023-06-19T08:12:15.672Z,100743.56
2023-06-19T08:13:17.681Z,100750.51
2023-06-19T08:14:19.579Z,100744.29
2023-06-19T08:15:21.944Z,100746.94
2023-06-19T08:16:23.903Z,100743.38
2023-06-19T08:17:25.913Z,100742.42
2023-06-19T08:18:27.914Z,100744.16
2023-06-19T08:19:31.184Z,100740.59
2023-06-19T08:20:33.142Z,100736.08
2023-06-19T08:21:35.796Z,100737.75
2023-06-19T08:22:37.641Z,100750.11
2023-06-19T08:23:39.594Z,100736.72
2023-06-19T08:24:41.571Z,100742.88
2023-06-19T08:25:43.703Z,100741.01
2023-06-19T08:26:45.871Z,100739.30
2023-06-19T08:27:48.016Z,100742.78
2023-06-19T08:28:49.978Z,100750.67
2023-06-19T08:29:53.187Z,100743.50
2023-06-19T08:30:55.224Z,100739.94
2023-06-19T08:31:57.180Z,100741.73
2023-06-19T08:32:59.265Z,100749.63
2023-06-19T08:34:01.290Z,100745.23
2023-06-19T08:35:03.634Z,100750.48
2023-06-19T08:36:05.786Z,100744.26
2023-06-19T08:37:07.746Z,100748.55
2023-06-19T08:38:09.701Z,100744.07
2023-06-19T08:39:11.642Z,100759.01
2023-06-19T08:40:13.906Z,100747.44
2023-06-19T08:41:15.861Z,100743.88
2023-06-19T08:42:17.704Z,100747.31
2023-06-19T08:43:19.488Z,100740.17
2023-06-19T08:44:21.420Z,100749.84
2023-06-19T08:45:23.668Z,100748.86
2023-06-19T08:46:25.799Z,100755.91
2023-06-19T08:47:27.690Z,100747.88
2023-06-19T08:48:29.633Z,100747.81
2023-06-19T08:49:31.589Z,100742.50
2023-06-19T08:50:33.539Z,100753.97
2023-06-19T08:51:35.402Z,100753.13
2023-06-19T08:52:37.354Z,100755.70
2023-06-19T08:53:39.286Z,100748.53
2023-06-19T08:54:41.349Z,100753.78
2023-06-19T08:55:44.422Z,100741.33
2023-06-19T08:56:46.703Z,100746.50
2023-06-19T08:57:48.640Z,100752.53
2023-06-19T08:58:50.585Z,100755.12
2023-06-19T08:59:52.553Z,100763.87
2023-06-19T09:00:54.498Z,100754.98
2023-06-19T09:01:56.453Z,100745.22
2023-06-19T09:03:11.914Z,100750.33
2023-06-19T09:04:02.251Z,100750.33
2023-06-19T09:05:04.359Z,100754.66
2023-06-19T09:06:06.767Z,100763.41
2023-06-19T09:07:09.096Z,100753.53
2023-06-19T09:08:11.229Z,100754.31
2023-06-19T09:09:13.081Z,100752.48
2023-06-19T09:10:15.452Z,100763.95
2023-06-19T09:11:17.224Z,100752.41
2023-06-19T09:12:19.228Z,100760.38
2023-06-19T09:13:21.107Z,100755.92
2023-06-19T09:14:22.955Z,100757.69
2023-06-19T09:15:24.907Z,100749.72
2023-06-19T09:16:26.857Z,100749.72
2023-06-19T09:17:28.893Z,100750.50
2023-06-19T09:18:30.874Z,100753.88
2023-06-19T09:19:32.929Z,100760.08
2023-06-19T09:20:34.977Z,100757.34
2023-06-19T09:21:37.326Z,100757.28
2023-06-19T09:22:39.694Z,100748.36
2023-06-19T09:23:41.646Z,100750.09
2023-06-19T09:24:43.856Z,100761.58
2023-06-19T09:25:45.855Z,100744.78
2023-06-19T09:26:47.806Z,100742.13
2023-06-19T09:27:50.000Z,100743.80
2023-06-19T09:28:51.917Z,100743.73
2023-06-19T09:29:54.066Z,100745.39
2023-06-19T09:30:56.047Z,100750.64
2023-06-19T09:31:58.161Z,100744.37
2023-06-19T09:33:00.285Z,100747.91
2023-06-19T09:34:02.428Z,100738.20
2023-06-19T09:35:04.446Z,100734.70
2023-06-19T09:36:06.817Z,100742.59
2023-06-19T09:37:08.664Z,100741.78
2023-06-19T09:38:10.514Z,100741.85
2023-06-19T09:39:12.479Z,100743.59
2023-06-19T09:40:14.634Z,100740.86
2023-06-19T09:41:16.476Z,100741.71
2023-06-19T09:42:18.438Z,100733.67
2023-06-19T09:43:20.476Z,100739.80
2023-06-19T09:44:22.228Z,100729.95
2023-06-19T09:45:24.183Z,100729.03
2023-06-19T09:46:26.029Z,100735.98
2023-06-19T09:47:28.091Z,100732.33
2023-06-19T09:48:30.205Z,100741.09
2023-06-19T09:49:31.988Z,100740.16
2023-06-19T09:50:34.041Z,100741.90
2023-06-19T09:51:35.792Z,100740.98
2023-06-19T09:52:37.744Z,100733.78
2023-06-19T09:53:39.700Z,100733.78
2023-06-19T09:54:41.754Z,100733.72
2023-06-19T09:55:43.706Z,100737.97
2023-06-19T09:56:45.664Z,100731.70
2023-06-19T09:57:47.811Z,100726.30
2023-06-19T09:58:49.771Z,100735.95
2023-06-19T09:59:51.619Z,100735.02
2023-06-19T10:00:53.677Z,100725.24
2023-06-19T10:01:55.792Z,100727.90
2023-06-19T10:02:57.746Z,100727.76
2023-06-19T10:03:59.630Z,100725.95
2023-06-19T10:05:01.597Z,100727.54
2023-06-19T10:06:03.652Z,100724.81
2023-06-19T10:07:05.590Z,100713.11
2023-06-19T10:08:07.441Z,100718.38
2023-06-19T10:09:09.305Z,100726.21
2023-06-19T10:10:11.457Z,100725.22
2023-06-19T10:11:13.305Z,100709.41
2023-06-19T10:12:15.262Z,100726.92
2023-06-19T10:13:17.104Z,100726.92
2023-06-19T10:14:19.058Z,100725.14
2023-06-19T10:15:20.802Z,100725.14
2023-06-19T10:16:22.794Z,100719.83
2023-06-19T10:17:24.969Z,100713.55
2023-06-19T10:18:26.970Z,100711.70
2023-06-19T10:19:28.928Z,100712.55
2023-06-19T10:20:30.976Z,100715.91
2023-06-19T10:21:33.228Z,100714.98
2023-06-19T10:22:35.203Z,100710.48
2023-06-19T10:23:37.048Z,100713.06
2023-06-19T10:24:39.376Z,100716.50
2023-06-19T10:25:41.458Z,100707.59
2023-06-19T10:26:44.120Z,100705.79
2023-06-19T10:27:46.080Z,100707.52
2023-06-19T10:28:48.024Z,100711.03
2023-06-19T10:30:00.227Z,100712.92
2023-06-19T10:30:53.588Z,100709.38
2023-06-19T10:31:55.537Z,100710.33
2023-06-19T10:32:57.460Z,100701.47
2023-06-19T10:33:59.429Z,100701.47
2023-06-19T10:35:01.430Z,100698.73
2023-06-19T10:36:03.334Z,100705.79
2023-06-19T10:37:05.286Z,100699.55
2023-06-19T10:38:07.239Z,100694.23
2023-06-19T10:39:09.292Z,100696.88
2023-06-19T10:40:11.228Z,100697.66
2023-06-19T10:41:13.405Z,100694.92
2023-06-19T10:42:15.482Z,100704.64
2023-06-19T10:43:17.535Z,100696.66
2023-06-19T10:44:19.468Z,100691.34
2023-06-19T10:45:21.431Z,100685.95
2023-06-19T10:46:23.396Z,100686.80
2023-06-19T10:47:25.498Z,100685.88
2023-06-19T10:48:27.387Z,100681.40
2023-06-19T10:49:29.227Z,100685.88
2023-06-19T10:50:31.184Z,100670.76
2023-06-19T10:51:33.130Z,100680.47
2023-06-19T10:52:35.184Z,100676.78
2023-06-19T10:53:37.139Z,100676.70
2023-06-19T10:54:39.091Z,100682.83
2023-06-19T10:55:41.059Z,100682.75
2023-06-19T10:56:43.200Z,100675.55
2023-06-19T10:59:12.992Z,100679.02
2023-06-19T11:00:15.325Z,100680.64
2023-06-19T11:01:17.347Z,100680.64
2023-06-19T11:02:19.515Z,100683.30
2023-06-19T11:03:21.860Z,100681.44
2023-06-19T11:04:23.804Z,100681.36
2023-06-19T11:05:25.656Z,100678.70
2023-06-19T11:06:27.704Z,100673.38
2023-06-19T11:07:29.764Z,100676.12
2023-06-19T11:08:31.609Z,100668.98
2023-06-19T11:09:33.457Z,100675.16
2023-06-19T11:10:35.720Z,100677.74
2023-06-19T11:11:37.674Z,100684.95
2023-06-19T11:12:39.423Z,100682.22
2023-06-19T11:13:41.369Z,100682.91
2023-06-19T11:14:43.336Z,100674.85
2023-06-19T11:15:45.117Z,100687.15
2023-06-19T11:16:48.659Z,100681.98
2023-06-19T11:17:50.651Z,100675.08
2023-06-19T11:18:52.586Z,100676.05
2023-06-19T11:19:54.622Z,100677.28
2023-06-19T11:20:56.593Z,100676.63
2023-06-19T11:21:58.551Z,100677.66
2023-06-19T11:23:00.584Z,100688.30
2023-06-19T11:24:02.470Z,100686.48
2023-06-19T11:25:04.490Z,100685.72
2023-06-19T11:26:06.649Z,100682.25
2023-06-19T11:27:08.708Z,100674.34
2023-06-19T11:28:11.800Z,100678.81
2023-06-19T11:29:13.744Z,100676.23
2023-06-19T11:30:16.201Z,100676.23
2023-06-19T11:31:18.390Z,100680.47
2023-06-19T11:32:20.343Z,100671.37
2023-06-19T11:33:22.159Z,100673.19
2023-06-19T11:34:24.808Z,100681.17
2023-06-19T11:35:26.780Z,100671.61
2023-06-19T11:36:28.735Z,100680.63
2023-06-19T11:37:30.787Z,100670.91
2023-06-19T11:38:32.740Z,100669.41
2023-06-19T11:39:34.598Z,100669.41
2023-06-19T11:40:36.533Z,100673.65
2023-06-19T11:41:38.373Z,100665.59
2023-06-19T11:42:40.346Z,100672.34
2023-06-19T11:43:42.224Z,100668.60
2023-06-19T11:44:44.152Z,100666.80
2023-06-19T11:45:46.161Z,100662.32
2023-06-19T11:46:48.160Z,100666.87
2023-06-19T11:47:49.939Z,100671.11
2023-06-19T11:49:06.528Z,100658.66
2023-06-19T11:49:55.654Z,100664.83
2023-06-19T11:50:57.810Z,100666.48
2023-06-19T11:51:59.766Z,100660.31
2023-06-19T11:53:01.832Z,100665.63
2023-06-19T11:54:04.958Z,100658.73
2023-06-19T11:55:07.093Z,100658.81
2023-06-19T11:56:09.350Z,100664.13
2023-06-19T11:57:11.684Z,100655.22
2023-06-19T11:58:14.041Z,100661.47
2023-06-19T11:59:15.990Z,100658.81
2023-06-19T12:00:17.987Z,100653.41
2023-06-19T12:01:20.027Z,100658.42
2023-06-19T12:02:22.357Z,100658.34
2023-06-19T12:03:24.565Z,100659.04
2023-06-19T12:04:26.786Z,100659.12
2023-06-19T12:05:28.830Z,100660.00
2023-06-19T12:06:30.886Z,100658.27
2023-06-19T12:07:32.749Z,100658.42
2023-06-19T12:08:34.586Z,100660.47
2023-06-19T12:09:36.431Z,100655.30
2023-06-19T12:10:38.394Z,100650.91
2023-06-19T12:11:40.336Z,100656.77
2023-06-19T12:12:42.700Z,100650.83
2023-06-19T12:13:44.650Z,100658.00
2023-06-19T12:14:46.601Z,100651.84
2023-06-19T12:15:48.558Z,100653.64
2023-06-19T12:16:50.768Z,100647.36
2023-06-19T12:17:52.676Z,100651.76
2023-06-19T12:18:54.721Z,100646.44
2023-06-19T12:19:56.696Z,100642.05
2023-06-19T12:20:59.246Z,100652.41
2023-06-19T12:22:01.213Z,100647.86
2023-06-19T12:23:03.147Z,100654.99
2023-06-19T12:24:05.142Z,100650.52
2023-06-19T12:25:07.050Z,100650.44
2023-06-19T12:26:10.025Z,100649.59
2023-06-19T12:27:11.983Z,100642.61
2023-06-19T12:28:13.827Z,100640.27
2023-06-19T12:29:16.094Z,100641.92
2023-06-19T12:30:18.140Z,100643.70
2023-06-19T12:31:20.151Z,100636.52
2023-06-19T12:32:22.194Z,100637.30
2023-06-19T12:33:24.205Z,100639.95
2023-06-19T12:34:31.050Z,100642.70
2023-06-19T12:35:29.961Z,100634.87
2023-06-19T12:36:31.901Z,100639.34
2023-06-19T12:37:33.819Z,100640.19
2023-06-19T12:38:35.825Z,100631.28
2023-06-19T12:39:37.957Z,100628.54
2023-06-19T12:40:40.372Z,100632.91
2023-06-19T12:41:44.087Z,100643.39
2023-06-19T12:42:46.276Z,100640.73
2023-06-19T12:43:48.123Z,100637.22
2023-06-19T12:44:49.872Z,100632.52
2023-06-19T12:45:51.775Z,100645.50
2023-06-19T12:46:53.782Z,100629.45
2023-06-19T12:47:56.379Z,100632.27
2023-06-19T12:48:58.399Z,100633.31
2023-06-19T12:50:00.397Z,100633.31
2023-06-19T12:51:02.407Z,100635.09
2023-06-19T12:52:04.367Z,100634.94
2023-06-19T12:53:06.217Z,100637.75
2023-06-19T12:54:08.458Z,100642.07
2023-06-19T12:55:10.431Z,100636.91
2023-06-19T12:56:14.325Z,100632.52
2023-06-19T12:57:16.175Z,100632.52
2023-06-19T12:58:18.029Z,100627.34
2023-06-19T12:59:20.072Z,100635.33
2023-06-19T13:00:22.051Z,100628.31
2023-06-19T13:01:24.111Z,100632.59
2023-06-19T13:02:26.282Z,100629.00
2023-06-19T13:03:28.688Z,100632.12
2023-06-19T13:04:30.456Z,100633.93
2023-06-19T13:05:32.302Z,100633.93
2023-06-19T13:06:34.369Z,100637.59
2023-06-19T13:07:36.314Z,100630.58
2023-06-19T13:08:38.268Z,100629.77
2023-06-19T13:09:40.235Z,100640.26
2023-06-19T13:10:42.597Z,100640.26
2023-06-19T13:11:44.537Z,100632.20
2023-06-19T13:12:46.497Z,100634.01
2023-06-19T13:13:48.541Z,100630.58
2023-06-19T13:14:50.497Z,100631.42
2023-06-19T13:15:52.540Z,100635.81
2023-06-19T13:16:54.859Z,100627.84
2023-06-19T13:17:56.921Z,100630.58
2023-06-19T13:18:58.822Z,100627.99
2023-06-19T13:20:00.787Z,100625.33
2023-06-19T13:21:02.850Z,100627.11
2023-06-19T13:22:04.886Z,100630.66
2023-06-19T13:23:06.869Z,100619.13
2023-06-19T13:24:09.139Z,100618.20
2023-06-19T13:25:11.357Z,100619.05
2023-06-19T13:26:14.341Z,100621.87
2023-06-19T13:27:16.181Z,100616.55
2023-06-19T13:28:18.144Z,100618.44
2023-06-19T13:29:20.186Z,100617.51
2023-06-19T13:30:22.357Z,100620.25
2023-06-19T13:31:24.605Z,100614.20
2023-06-19T13:32:26.485Z,100611.54
2023-06-19T13:33:28.523Z,100615.16
2023-06-19T13:34:30.570Z,100609.77
2023-06-19T13:35:32.623Z,100616.94
2023-06-19T13:36:34.785Z,100608.88
2023-06-19T13:37:36.626Z,100614.13
2023-06-19T13:38:38.689Z,100607.19
2023-06-19T13:39:40.737Z,100603.56
2023-06-19T13:40:42.701Z,100605.98
2023-06-19T13:41:45.454Z,100595.42
2023-06-19T13:42:47.213Z,100602.47
2023-06-19T13:43:49.170Z,100606.87
2023-06-19T13:44:51.477Z,100607.48
2023-06-19T13:45:53.585Z,100608.33
2023-06-19T13:46:55.678Z,100610.22
2023-06-19T13:47:57.722Z,100610.22
2023-06-19T13:48:59.758Z,100615.78
2023-06-19T13:50:01.822Z,100609.69
2023-06-19T13:51:03.861Z,100591.22
2023-06-19T13:52:05.725Z,100607.26
2023-06-19T13:53:07.651Z,100610.84
2023-06-19T13:54:09.598Z,100601.13
2023-06-19T13:55:11.472Z,100606.45
2023-06-19T13:57:34.722Z,100599.56
2023-06-19T13:58:36.760Z,100598.09
2023-06-19T13:59:38.612Z,100592.70
2023-06-19T14:00:40.611Z,100595.36
2023-06-19T14:01:42.632Z,100595.36
2023-06-19T14:02:44.544Z,100605.84
2023-06-19T14:03:46.589Z,100602.30
2023-06-19T14:04:48.586Z,100598.87
2023-06-19T14:05:50.429Z,100595.28
2023-06-19T14:06:52.396Z,100601.53
2023-06-19T14:07:54.442Z,100590.27
2023-06-19T14:08:59.367Z,100594.47
2023-06-19T14:10:01.242Z,100594.63
2023-06-19T14:11:03.282Z,100590.27
2023-06-19T14:12:05.215Z,100596.52
2023-06-19T14:13:07.069Z,100588.69
2023-06-19T14:14:09.023Z,100593.16
2023-06-19T14:15:11.067Z,100595.98
2023-06-19T14:16:13.254Z,100585.42
2023-06-19T14:17:15.497Z,100588.16
2023-06-19T14:18:17.451Z,100583.61
2023-06-19T14:19:19.403Z,100581.88
2023-06-19T14:20:21.580Z,100586.34
2023-06-19T14:21:23.617Z,100586.42
2023-06-19T14:22:25.466Z,100582.03
2023-06-19T14:23:27.421Z,100590.16
2023-06-19T14:24:29.313Z,100590.16
2023-06-19T14:25:31.332Z,100581.41
2023-06-19T14:26:33.698Z,100590.23
2023-06-19T14:27:35.750Z,100590.23
2023-06-19T14:28:37.693Z,100593.83
2023-06-19T14:29:39.706Z,100584.45
2023-06-19T14:30:41.693Z,100584.45
2023-06-19T14:31:43.970Z,100593.20
2023-06-19T14:32:45.887Z,100597.75
2023-06-19T14:33:47.771Z,100603.98
2023-06-19T14:34:49.502Z,100594.36
2023-06-19T14:35:53.303Z,100596.20
2023-06-19T14:36:55.458Z,100596.20
2023-06-19T14:37:57.462Z,100594.55
2023-06-19T14:38:59.368Z,100595.55
2023-06-19T14:40:01.285Z,100594.70
2023-06-19T14:41:03.267Z,100592.89
2023-06-19T14:42:05.122Z,100593.78
2023-06-19T14:43:07.094Z,100598.21
2023-06-19T14:44:09.137Z,100598.17
2023-06-19T14:45:11.090Z,100598.09
2023-06-19T14:46:20.343Z,100599.72
2023-06-19T14:47:17.057Z,100600.60
2023-06-19T14:48:19.093Z,100604.99
2023-06-19T14:49:21.163Z,100607.65
2023-06-19T14:50:23.416Z,100603.22
2023-06-19T14:51:25.772Z,100601.41
2023-06-19T14:52:27.829Z,100611.12
2023-06-19T14:53:30.001Z,100603.91
2023-06-19T14:54:32.041Z,100615.40
2023-06-19T14:55:34.091Z,100609.16
2023-06-19T14:56:36.047Z,100607.34
2023-06-19T14:57:37.989Z,100610.97
2023-06-19T14:58:39.903Z,100611.73
2023-06-19T14:59:41.905Z,100611.73
2023-06-19T15:00:43.748Z,100609.16
2023-06-19T15:01:45.754Z,100608.38
2023-06-19T15:02:47.888Z,100617.28
2023-06-19T15:03:50.055Z,100614.62
2023-06-19T15:05:05.020Z,100618.13
2023-06-19T15:05:55.907Z,100617.28
2023-06-19T15:06:57.916Z,100611.04
2023-06-19T15:07:59.872Z,100616.51
2023-06-19T15:09:03.125Z,100610.31
2023-06-19T15:10:05.635Z,100616.44
2023-06-19T15:11:07.777Z,100611.97
2023-06-19T15:12:09.732Z,100614.62
2023-06-19T15:13:11.696Z,100613.02
2023-06-19T15:14:13.743Z,100613.02
2023-06-19T15:15:15.693Z,100621.75
2023-06-19T15:16:17.672Z,100620.80
2023-06-19T15:17:19.713Z,100621.67
2023-06-19T15:18:21.738Z,100626.99
2023-06-19T15:19:23.914Z,100624.26
2023-06-19T15:20:26.025Z,100632.31
2023-06-19T15:21:28.219Z,100635.05
2023-06-19T15:22:30.199Z,100620.94
2023-06-19T15:23:32.217Z,100626.19
2023-06-19T15:24:34.238Z,100630.65
2023-06-19T15:25:36.138Z,100627.91
2023-06-19T15:26:40.214Z,100627.91
2023-06-19T15:27:42.203Z,100627.06
2023-06-19T15:28:44.148Z,100619.20
2023-06-19T15:29:45.893Z,100626.30
2023-06-19T15:30:47.863Z,100622.80
2023-06-19T15:31:50.107Z,100622.80
2023-06-19T15:32:52.128Z,100612.16
2023-06-19T15:33:54.114Z,100615.67
2023-06-19T15:34:56.477Z,100616.55
2023-06-19T15:35:58.431Z,100622.67
2023-06-19T15:37:00.383Z,100623.45
2023-06-19T15:38:02.324Z,100631.62
2023-06-19T15:39:04.185Z,100626.38
2023-06-19T15:40:06.245Z,100629.11
2023-06-19T15:41:08.288Z,100638.05
2023-06-19T15:42:10.238Z,100635.42
2023-06-19T15:43:12.090Z,100627.52
2023-06-19T15:44:14.042Z,100631.14
2023-06-19T15:45:16.198Z,100630.19
2023-06-19T15:46:18.373Z,100635.58
2023-06-19T15:47:20.537Z,100633.80
2023-06-19T15:48:22.468Z,100635.50
2023-06-19T15:49:24.429Z,100639.05
2023-06-19T15:50:26.597Z,100637.31
2023-06-19T15:51:28.944Z,100637.31
2023-06-19T15:52:30.906Z,100647.09
2023-06-19T15:53:32.847Z,100637.38
2023-06-19T15:54:34.692Z,100646.28
2023-06-19T15:55:36.646Z,100640.12
2023-06-19T15:56:38.610Z,100644.66
2023-06-19T15:57:40.543Z,100643.77
2023-06-19T15:58:42.509Z,100643.84
2023-06-19T15:59:44.459Z,100651.74
2023-06-19T16:00:46.846Z,100642.99
2023-06-19T16:01:48.934Z,100650.19
2023-06-19T16:02:51.056Z,100650.19
2023-06-19T16:03:53.405Z,100653.77
2023-06-19T16:04:55.132Z,100660.89
2023-06-19T16:06:07.039Z,100653.84
2023-06-19T16:07:00.681Z,100650.41
2023-06-19T16:08:02.638Z,100654.84
2023-06-19T16:09:04.682Z,100657.50
2023-06-19T16:10:06.752Z,100653.21
2023-06-19T16:11:09.023Z,100652.33
2023-06-19T16:12:10.955Z,100654.06
2023-06-19T16:13:12.905Z,100656.86
2023-06-19T16:14:14.771Z,100653.39
2023-06-19T16:15:16.707Z,100656.05
2023-06-19T16:16:18.879Z,100649.89
2023-06-19T16:17:20.955Z,100649.96
2023-06-19T16:18:22.896Z,100646.45
2023-06-19T16:19:25.935Z,100655.27
2023-06-19T16:20:27.904Z,100654.50
2023-06-19T16:21:29.858Z,100655.34
2023-06-19T16:22:31.709Z,100650.95
2023-06-19T16:23:33.559Z,100655.42
2023-06-19T16:24:35.524Z,100657.23
2023-06-19T16:25:37.596Z,100664.39
2023-06-19T16:26:39.531Z,100660.09
2023-06-19T16:27:41.579Z,100661.94
2023-06-19T16:28:43.429Z,100662.83
2023-06-19T16:29:45.581Z,100665.62
2023-06-19T16:30:47.540Z,100662.16
2023-06-19T16:32:00.397Z,100672.78
2023-06-19T16:32:53.024Z,100671.08
2023-06-19T16:33:54.823Z,100673.73
2023-06-19T16:34:56.678Z,100669.34
2023-06-19T16:35:58.628Z,100665.84
2023-06-19T16:37:00.473Z,100672.07
2023-06-19T16:38:02.434Z,100669.42
2023-06-19T16:39:04.380Z,100677.52
2023-06-19T16:40:06.443Z,100673.13
2023-06-19T16:41:08.283Z,100668.74
2023-06-19T16:42:10.235Z,100673.27
2023-06-19T16:43:12.021Z,100673.41
2023-06-19T16:44:13.953Z,100669.02
2023-06-19T16:45:15.925Z,100665.62
2023-06-19T16:46:17.862Z,100672.70
2023-06-19T16:47:19.800Z,100664.77
2023-06-19T16:48:21.662Z,100674.52
2023-06-19T16:49:23.795Z,100670.16
2023-06-19T16:50:26.069Z,100671.92
2023-06-19T16:51:28.015Z,100671.08
2023-06-19T16:52:29.978Z,100674.72
2023-06-19T16:53:31.816Z,100671.21
2023-06-19T16:54:33.785Z,100673.94
2023-06-19T16:55:35.843Z,100676.66
2023-06-19T16:56:38.094Z,100675.78
2023-06-19T16:57:39.942Z,100675.00
2023-06-19T16:58:41.799Z,100675.13
2023-06-19T16:59:43.650Z,100677.86
2023-06-19T17:00:45.942Z,100668.22
2023-06-19T17:01:48.009Z,100677.14
2023-06-19T17:02:50.014Z,100676.33
2023-06-19T17:03:51.964Z,100671.02
2023-06-19T17:04:53.933Z,100671.97
2023-06-19T17:05:55.975Z,100663.19
2023-06-19T17:06:57.922Z,100655.56
2023-06-19T17:07:59.874Z,100663.32
2023-06-19T17:09:01.624Z,100667.92
2023-06-19T17:10:03.653Z,100666.18
2023-06-19T17:11:05.839Z,100663.66
2023-06-19T17:12:07.786Z,100662.88
2023-06-19T17:13:09.740Z,100664.78
2023-06-19T17:14:11.693Z,100664.84
2023-06-19T17:15:13.429Z,100666.72
2023-06-19T17:16:15.616Z,100667.70
2023-06-19T17:17:17.540Z,100663.41
2023-06-19T17:18:19.499Z,100666.13
2023-06-19T17:19:21.357Z,100667.97
2023-06-19T17:20:24.230Z,100670.63
2023-06-19T17:21:26.505Z,100677.80
2023-06-19T17:22:28.436Z,100675.14
2023-06-19T17:23:30.391Z,100674.26
2023-06-19T17:24:32.265Z,100670.88
2023-06-19T17:25:34.204Z,100675.41
2023-06-19T17:26:36.146Z,100673.73
2023-06-19T17:27:38.085Z,100671.14
2023-06-19T17:28:40.046Z,100677.41
2023-06-19T17:29:41.995Z,100675.77
2023-06-19T17:30:44.055Z,100679.39
2023-06-19T17:31:45.908Z,100682.11
2023-06-19T17:32:47.836Z,100684.89
2023-06-19T17:33:49.829Z,100688.53
2023-06-19T17:34:51.871Z,100689.38
2023-06-19T17:35:53.853Z,100686.79
2023-06-19T17:36:55.776Z,100693.05
2023-06-19T17:37:58.029Z,100686.06
2023-06-19T17:38:59.886Z,100687.11
2023-06-19T17:40:01.835Z,100690.77
2023-06-19T17:41:03.783Z,100694.40
2023-06-19T17:42:05.738Z,100696.33
2023-06-19T17:43:07.688Z,100690.27
2023-06-19T17:44:09.552Z,100693.04
2023-06-19T17:45:11.625Z,100701.12
2023-06-19T17:46:14.008Z,100704.80
2023-06-19T17:47:15.939Z,100713.70
2023-06-19T17:48:17.758Z,100717.39
2023-06-19T17:49:19.608Z,100715.72
2023-06-19T17:50:22.212Z,100711.39
2023-06-19T17:51:24.441Z,100714.09
2023-06-19T17:52:26.489Z,100716.02
2023-06-19T17:53:28.440Z,100718.78
2023-06-19T17:54:30.315Z,100725.06
2023-06-19T17:55:32.155Z,100718.97
2023-06-19T17:56:34.124Z,100720.84
2023-06-19T17:57:36.156Z,100721.87
2023-06-19T17:58:38.317Z,100728.15
2023-06-19T17:59:40.259Z,100731.70
2023-06-19T18:00:42.234Z,100729.17
2023-06-19T18:01:44.262Z,100724.87
2023-06-19T18:02:46.286Z,100730.18
2023-06-19T18:03:48.334Z,100736.45
2023-06-19T18:04:50.237Z,100730.53
2023-06-19T18:05:52.192Z,100730.53
2023-06-19T18:06:54.243Z,100728.78
2023-06-19T18:07:56.186Z,100734.20
2023-06-19T18:08:58.048Z,100734.25
2023-06-19T18:10:00.395Z,100737.81
2023-06-19T18:11:02.386Z,100744.02
2023-06-19T18:12:04.419Z,100742.26
2023-06-19T18:13:06.400Z,100749.32
2023-06-19T18:14:08.320Z,100749.44
2023-06-19T18:15:10.267Z,100748.64
2023-06-19T18:16:13.970Z,100751.45
2023-06-19T18:17:16.000Z,100751.45
2023-06-19T18:18:18.717Z,100753.36
2023-06-19T18:19:21.071Z,100758.77
2023-06-19T18:20:23.710Z,100763.17
2023-06-19T18:21:25.976Z,100757.88
2023-06-19T18:22:27.817Z,100756.17
2023-06-19T18:23:29.801Z,100760.64
2023-06-19T18:24:31.879Z,100762.54
2023-06-19T18:25:33.896Z,100764.47
2023-06-19T18:26:36.036Z,100765.63
2023-06-19T18:27:38.006Z,100762.33
2023-06-19T18:28:39.960Z,100762.48
2023-06-19T18:29:42.006Z,100762.00
2023-06-19T18:30:43.957Z,100762.00
2023-06-19T18:31:45.811Z,100763.02
2023-06-19T18:32:47.788Z,100766.72
2023-06-19T18:33:49.826Z,100765.97
2023-06-19T18:34:51.867Z,100772.27
2023-06-19T18:35:53.814Z,100765.34
2023-06-19T18:36:55.673Z,100771.66
2023-06-19T18:37:57.639Z,100774.31
2023-06-19T18:38:59.676Z,100769.88
2023-06-19T18:40:01.646Z,100776.86
2023-06-19T18:41:03.588Z,100775.97
2023-06-19T18:42:05.538Z,100779.55
2023-06-19T18:43:07.485Z,100786.60
2023-06-19T18:44:09.445Z,100774.31
2023-06-19T18:45:11.808Z,100781.41
2023-06-19T18:46:13.823Z,100775.27